createdAt,value
2023-05-25T05:02:30.890Z,2.03
2023-05-25T05:07:36.051Z,1.77
2023-05-25T05:12:39.705Z,2.08
2023-05-25T05:17:44.900Z,2.17
2023-05-25T05:22:50.167Z,1.67
2023-05-25T05:27:54.411Z,2.40
2023-05-25T05:33:00.710Z,2.42
2023-05-25T05:38:05.883Z,2.97
2023-05-25T05:43:12.228Z,2.65
2023-05-25T05:48:17.803Z,2.58
2023-05-25T05:53:21.759Z,2.67
2023-05-25T05:58:26.594Z,2.13
2023-05-25T06:03:31.796Z,3.03
2023-05-25T06:08:35.689Z,3.60
2023-05-25T06:13:39.676Z,1.97
2023-05-25T06:18:45.078Z,2.92
2023-05-25T06:23:48.920Z,3.65
2023-05-25T06:28:53.245Z,2.35
2023-05-25T06:33:58.349Z,2.50
2023-05-25T06:39:02.405Z,3.12
2023-05-25T06:44:06.061Z,3.20
2023-05-25T06:49:16.770Z,2.25
2023-05-25T06:54:20.787Z,2.37
2023-05-25T06:59:24.406Z,3.85
2023-05-25T07:04:29.619Z,2.70
2023-05-25T07:09:33.298Z,3.15
2023-05-25T07:14:36.944Z,3.50
2023-05-25T07:19:43.344Z,3.97
2023-05-25T07:24:47.023Z,3.50
2023-05-25T07:29:51.215Z,5.30
2023-05-25T07:34:56.169Z,2.90
2023-05-25T07:39:59.734Z,3.03
2023-05-25T07:45:03.772Z,2.90
2023-05-25T07:50:09.621Z,2.45
2023-05-25T07:55:13.558Z,3.87
2023-05-25T08:00:18.106Z,3.60
2023-05-25T08:10:31.454Z,2.95
2023-05-25T08:15:35.131Z,3.20
2023-05-25T08:20:40.216Z,4.20
2023-05-25T08:25:44.195Z,2.75
2023-05-25T08:30:48.455Z,3.22
2023-05-25T08:35:53.488Z,2.78
2023-05-25T08:41:06.195Z,2.37
2023-05-25T08:46:10.906Z,2.42
2023-05-25T08:51:18.422Z,2.37
2023-05-25T08:56:23.369Z,2.30
2023-05-25T09:01:30.077Z,2.50
2023-05-25T09:06:36.763Z,1.52
2023-05-25T09:11:44.267Z,2.03
2023-05-25T09:16:50.275Z,1.83
2023-05-25T09:22:03.144Z,2.47
2023-05-25T09:27:13.278Z,2.08
2023-05-25T09:32:17.556Z,2.25
2023-05-25T09:37:22.969Z,2.42
2023-05-25T09:42:27.184Z,2.37
2023-05-25T09:47:31.175Z,2.37
2023-05-25T09:52:37.320Z,2.67
2023-05-25T09:57:40.941Z,2.20
2023-05-25T10:02:44.604Z,2.35
2023-05-25T10:07:53.251Z,2.17
2023-05-25T10:12:58.226Z,2.22
2023-05-25T10:18:03.609Z,2.95
2023-05-25T10:23:12.554Z,2.22
2023-05-25T10:28:21.086Z,2.33
2023-05-25T10:33:25.763Z,1.90
2023-05-25T10:38:32.450Z,1.37
2023-05-25T10:43:36.429Z,2.03
2023-05-25T10:48:41.384Z,1.23
2023-05-25T10:53:59.451Z,1.90
2023-05-25T10:59:03.145Z,1.27
2023-05-25T11:04:17.345Z,0.95
2023-05-25T11:09:31.011Z,1.12
2023-05-25T11:14:37.770Z,1.03
2023-05-25T11:19:43.783Z,1.20
2023-05-25T11:24:49.192Z,1.00
2023-05-25T11:29:53.458Z,1.05
2023-05-25T11:34:59.084Z,1.00
2023-05-25T11:40:09.338Z,1.50
2023-05-25T11:45:15.551Z,1.12
2023-05-25T11:50:19.166Z,1.00
2023-05-25T11:55:24.191Z,1.25
2023-05-25T12:00:28.731Z,1.52
2023-05-25T12:05:39.289Z,0.90
2023-05-25T12:10:53.484Z,0.90
2023-05-25T12:21:01.537Z,0.80
2023-05-25T12:26:13.890Z,1.48
2023-05-25T12:31:24.701Z,0.73
2023-05-25T12:36:39.014Z,1.50
2023-05-25T12:41:54.586Z,0.85
2023-05-25T12:47:11.705Z,0.95
2023-05-25T12:52:33.728Z,1.20
2023-05-25T12:57:38.697Z,1.00
2023-05-25T13:02:46.210Z,1.30
2023-05-25T13:07:50.987Z,0.80
2023-05-25T13:18:02.879Z,1.00
2023-05-25T13:23:06.968Z,0.88
2023-05-25T13:28:11.980Z,1.00
2023-05-25T13:33:15.701Z,1.00
2023-05-25T13:38:19.702Z,1.17
2023-05-25T13:43:24.677Z,0.70
2023-05-25T13:48:29.912Z,0.80
2023-05-25T13:53:33.755Z,0.88
2023-05-25T13:58:38.908Z,0.80
2023-05-25T14:03:42.798Z,0.90
2023-05-25T14:13:51.371Z,1.00
2023-05-25T14:18:56.470Z,1.33
2023-05-25T14:24:00.478Z,0.82
2023-05-25T14:34:08.860Z,0.68
2023-05-25T14:39:15.097Z,0.85
2023-05-25T14:44:22.103Z,1.00
2023-05-25T14:49:27.159Z,0.95
2023-05-25T14:54:30.726Z,1.10
2023-05-25T14:59:35.733Z,0.90
2023-05-25T15:04:39.348Z,0.70
2023-05-25T15:09:43.218Z,1.05
2023-05-25T15:14:48.197Z,0.80
2023-05-25T15:19:51.887Z,0.95
2023-05-25T15:24:55.634Z,1.20
2023-05-25T15:30:00.632Z,0.95
2023-05-25T15:35:04.484Z,1.05
2023-05-25T15:40:09.736Z,0.93
2023-05-25T15:45:14.834Z,0.90
2023-05-25T15:50:18.589Z,1.00
2023-05-25T15:55:22.368Z,1.00
2023-05-25T16:00:27.374Z,1.10
2023-05-25T16:05:31.218Z,0.80
2023-05-25T16:10:35.088Z,1.35
2023-05-25T16:15:40.060Z,0.60
2023-05-25T16:20:44.022Z,0.88
2023-05-25T16:25:47.833Z,1.40
2023-05-25T16:30:53.506Z,0.90
2023-05-25T16:35:57.234Z,1.37
2023-05-25T16:41:01.032Z,0.98
2023-05-25T16:46:06.368Z,0.82
2023-05-25T16:51:15.005Z,0.80
2023-05-25T16:56:21.430Z,0.70
2023-05-25T17:01:26.458Z,0.80
2023-05-25T17:06:30.155Z,1.12
2023-05-25T17:11:33.829Z,1.00
2023-05-25T17:16:38.854Z,0.83
2023-05-25T17:21:42.658Z,0.93
2023-05-25T17:26:50.094Z,1.30
2023-05-25T17:31:55.140Z,0.90
2023-05-25T17:36:58.824Z,0.95
2023-05-25T17:42:03.326Z,1.23
2023-05-25T17:47:10.762Z,1.00
2023-05-25T17:52:14.888Z,1.23
2023-05-25T17:57:18.496Z,1.20
2023-05-25T18:02:24.273Z,1.30
2023-05-25T18:07:27.990Z,1.83
2023-05-25T18:12:31.622Z,1.13
2023-05-25T18:17:36.613Z,1.10
2023-05-25T18:22:40.172Z,1.20
2023-05-25T18:27:43.906Z,1.40
2023-05-25T18:32:53.340Z,1.20
2023-05-25T18:37:57.074Z,1.67
2023-05-25T18:43:00.631Z,1.40
2023-05-25T18:48:08.342Z,1.50
2023-05-25T18:53:12.100Z,1.20
2023-05-25T18:58:15.645Z,1.13
2023-05-25T19:03:20.899Z,2.00
2023-05-25T19:08:24.567Z,1.30
2023-05-25T19:13:28.170Z,1.50
2023-05-25T19:18:33.088Z,1.20
2023-05-25T19:23:36.605Z,1.30
2023-05-25T19:28:40.154Z,1.53
2023-05-25T19:33:45.320Z,1.83
2023-05-25T19:38:48.935Z,1.45
2023-05-25T19:43:52.504Z,1.50
2023-05-25T19:48:57.945Z,1.43
2023-05-25T19:54:01.615Z,1.30
2023-05-25T19:59:05.279Z,1.30
2023-05-25T20:04:10.269Z,1.47
2023-05-25T20:09:14.367Z,1.40
2023-05-25T20:14:20.096Z,1.52
2023-05-25T20:19:25.272Z,1.80
2023-05-25T20:24:28.937Z,1.50
2023-05-25T20:29:32.841Z,1.47
2023-05-25T20:34:37.751Z,1.10
2023-05-25T20:39:41.311Z,2.08
2023-05-25T20:44:44.875Z,3.20
2023-05-25T20:49:50.940Z,1.47
2023-05-25T20:54:54.490Z,1.25
2023-05-25T20:59:59.911Z,1.37
2023-05-25T21:05:05.354Z,1.60
2023-05-25T21:10:09.860Z,1.62
2023-05-25T21:20:18.418Z,1.75
2023-05-25T21:25:22.713Z,1.77
2023-05-25T21:30:26.585Z,1.62
2023-05-25T21:35:31.875Z,2.20
2023-05-25T21:40:35.821Z,2.47
2023-05-25T21:45:39.838Z,2.15
2023-05-25T21:50:44.888Z,1.83
2023-05-25T21:55:49.024Z,1.80
2023-05-25T22:00:53.084Z,2.83
2023-05-25T22:05:58.127Z,1.67
2023-05-25T22:11:02.151Z,1.92
2023-05-25T22:16:06.509Z,1.83
2023-05-25T22:21:11.788Z,2.37
2023-05-25T22:26:15.682Z,1.98
